Decoded Metar for LFBZ (BIARRITZ-BAYONNE in FRANCE) (IATA:BIQ) | Meteo·Mobile Aviation Weather
aviador You're here:

LFBZ Decoded Metar

BIARRITZ-BAYONNE in FRANCE
Report Time2019-07-21 16:30:00
UTC Time2019-07-21 16:52:30
Flight Rules vfr VFR
Wind340° at 09 kt
W.Decomp.*RWY 27: 2.9 kt HW 8.5 kt RCW
Visibility9999 m
Phenomena:N/A
Clouds:Broken 033 Hf
Expected CloudBase > 2,000 ft AGL from Temp-Dew spread
Ceiling3,300 ft
Temp24°C (ISA +9)
Dew Point19°C (74% RH)
QNH1021 hPa
Density Alt1,355 ft
Elevation233 ft
Report Wrong Elevation
Raw Report
METAR LFBZ 211630Z AUTO 34009KT 9999 BKN033 24/19 Q1021 NOSIG=

Extra information for LFBZ:More info

Metar Taf Metar & Taf Last 4 Metars F.Rules Stats Wind Profile Meteogram Temp Stats Airport Information Weather charts Add Link Nearby VenuesMetar ALERT Operation Metar Decoded Social comments